KSGR

Sugar Land Regional Airport

Houston, Texas, USA
METAR KSGR 260353Z AUTO 19005KT 10SM CLR 26/23 A2989 RMK AO2 SLP122 T02610233
Observed Flight Rules
May-26 @ 03:53 UTC (21 minutes ago) Visual Flight Rules
Wind Visibility Clouds
190° at 5 knots 10 miles
  • Clear skies
Temperatures Readings
Current 26°C / 79°F
Dewpoint 23°C / 73°F
Humidity 84%
Altimeter 29.89" Hg
Pressure 1012.2 hPa
Elevation 2
METAR KSGR 260353Z AUTO 19005KT 10SM CLR 26/23 A2989 RMK AO2 SLP122 T02610233
Observed Flight Rules
May-26 @ 03:53 UTC
(21 minutes ago)
VFR
Wind Visibility
190° at 5 knots 10 miles
Clouds
  • Clear skies
Temperature Dewpoint
26°C / 79°F 23°C / 73°F
Humidity Altimeter Pressure
84% 29.89" Hg 1012.2 hPa